createdAt,value
2022-08-05T00:01:55.981Z,18.90
2022-08-05T00:04:35.400Z,18.90
2022-08-05T00:07:26.831Z,18.80
2022-08-05T00:09:52.986Z,18.80
2022-08-05T00:12:22.425Z,18.80
2022-08-05T00:14:53.391Z,18.80
2022-08-05T00:17:21.511Z,18.70
2022-08-05T00:20:02.599Z,18.70
2022-08-05T00:22:34.978Z,18.60
2022-08-05T00:25:02.977Z,18.60
2022-08-05T00:27:36.710Z,18.60
2022-08-05T00:30:11.707Z,18.60
2022-08-05T00:32:44.278Z,18.50
2022-08-05T00:35:14.754Z,18.40
2022-08-05T00:37:52.707Z,18.40
2022-08-05T00:40:29.272Z,18.40
2022-08-05T00:43:02.081Z,18.30
2022-08-05T00:45:43.536Z,18.30
2022-08-05T00:48:14.184Z,18.30
2022-08-05T00:50:46.102Z,18.30
2022-08-05T00:54:01.482Z,18.30
2022-08-05T00:56:09.390Z,18.30
2022-08-05T00:58:37.675Z,18.20
2022-08-05T01:01:08.859Z,18.20
2022-08-05T01:03:38.965Z,18.20
2022-08-05T01:06:11.263Z,18.20
2022-08-05T01:08:44.215Z,18.20
2022-08-05T01:11:48.944Z,18.10
2022-08-05T01:14:29.935Z,18.10
2022-08-05T01:17:07.675Z,18.10
2022-08-05T01:20:02.865Z,18.10
2022-08-05T01:23:15.323Z,18.00
2022-08-05T01:26:09.780Z,18.00
2022-08-05T01:28:44.048Z,17.90
2022-08-05T01:31:22.360Z,17.90
2022-08-05T01:34:13.789Z,17.80
2022-08-05T01:36:55.525Z,17.80
2022-08-05T01:39:45.827Z,17.80
2022-08-05T01:42:19.494Z,17.70
2022-08-05T01:44:54.084Z,17.70
2022-08-05T01:47:39.434Z,17.70
2022-08-05T01:50:18.913Z,17.60
2022-08-05T01:53:06.923Z,17.60
2022-08-05T01:55:38.378Z,17.50
2022-08-05T01:58:15.588Z,17.50
2022-08-05T02:00:49.008Z,17.40
2022-08-05T02:03:49.012Z,17.40
2022-08-05T02:06:37.392Z,17.40
2022-08-05T02:09:07.429Z,17.40
2022-08-05T02:11:59.668Z,17.30
2022-08-05T02:14:37.139Z,17.30
2022-08-05T02:17:16.982Z,17.20
2022-08-05T02:20:06.530Z,17.20
2022-08-05T02:22:42.319Z,17.20
2022-08-05T02:25:17.945Z,17.20
2022-08-05T02:27:57.729Z,17.20
2022-08-05T02:30:51.739Z,17.10
2022-08-05T02:33:35.950Z,17.10
2022-08-05T02:36:15.518Z,17.10
2022-08-05T02:38:53.396Z,17.10
2022-08-05T02:41:28.965Z,17.00
2022-08-05T02:44:13.574Z,17.00
2022-08-05T02:46:58.420Z,17.00
2022-08-05T02:49:41.781Z,17.00
2022-08-05T02:52:30.065Z,17.00
2022-08-05T02:55:02.034Z,17.00
2022-08-05T02:58:11.320Z,17.10
2022-08-05T03:00:31.130Z,17.10
2022-08-05T03:03:10.396Z,17.10
2022-08-05T03:06:53.703Z,17.10
2022-08-05T03:08:29.828Z,17.00
2022-08-05T03:11:45.932Z,17.00
2022-08-05T03:13:51.631Z,17.00
2022-08-05T03:16:31.644Z,17.00
2022-08-05T03:19:01.153Z,16.90
2022-08-05T03:21:41.653Z,16.90
2022-08-05T03:24:29.269Z,16.90
2022-08-05T03:27:01.126Z,16.80
2022-08-05T03:29:44.864Z,16.80
2022-08-05T03:32:19.556Z,16.70
2022-08-05T03:34:54.004Z,16.70
2022-08-05T03:37:22.810Z,16.60
2022-08-05T03:40:01.751Z,16.60
2022-08-05T03:42:33.111Z,16.50
2022-08-05T03:45:21.499Z,16.50
2022-08-05T03:47:56.884Z,16.50
2022-08-05T03:50:36.423Z,16.50
2022-08-05T03:55:53.174Z,16.40
2022-08-05T03:56:27.878Z,16.40
2022-08-05T03:59:07.657Z,16.40
2022-08-05T04:01:40.465Z,16.40
2022-08-05T04:04:11.000Z,16.30
2022-08-05T04:06:47.356Z,16.30
2022-08-05T04:09:20.254Z,16.30
2022-08-05T04:11:56.317Z,16.30
2022-08-05T04:14:30.370Z,16.30
2022-08-05T04:17:03.109Z,16.30
2022-08-05T04:19:32.107Z,16.20
2022-08-05T04:22:08.788Z,16.20
2022-08-05T04:24:52.309Z,16.20
2022-08-05T04:27:41.769Z,16.20
2022-08-05T04:30:13.424Z,16.10
2022-08-05T04:32:42.346Z,16.10
2022-08-05T04:35:17.726Z,16.00
2022-08-05T04:38:02.541Z,16.00
2022-08-05T04:40:35.846Z,15.90
2022-08-05T04:43:04.228Z,15.80
2022-08-05T04:45:48.081Z,15.80
2022-08-05T04:48:18.638Z,15.70
2022-08-05T04:51:02.795Z,15.70
2022-08-05T04:53:38.892Z,15.60
2022-08-05T04:56:33.151Z,15.60
2022-08-05T04:58:57.657Z,15.60
2022-08-05T05:01:33.653Z,15.60
2022-08-05T05:04:17.071Z,15.60
2022-08-05T05:06:51.990Z,15.60
2022-08-05T05:09:25.589Z,15.60
2022-08-05T05:12:00.262Z,15.60
2022-08-05T05:14:32.356Z,15.60
2022-08-05T05:17:07.546Z,15.70
2022-08-05T05:19:44.086Z,15.70
2022-08-05T05:22:24.282Z,15.70
2022-08-05T05:25:16.131Z,15.80
2022-08-05T05:27:53.543Z,15.80
2022-08-05T05:30:30.640Z,15.80
2022-08-05T05:33:14.197Z,15.70
2022-08-05T05:35:57.862Z,15.70
2022-08-05T05:38:27.563Z,15.70
2022-08-05T05:40:57.028Z,15.70
2022-08-05T05:43:57.478Z,15.60
2022-08-05T05:46:15.950Z,15.60
2022-08-05T05:48:48.360Z,15.60
2022-08-05T05:51:28.079Z,15.60
2022-08-05T05:53:59.717Z,15.70
2022-08-05T05:56:32.675Z,15.70
2022-08-05T05:59:06.542Z,15.90
2022-08-05T06:01:38.944Z,16.00
2022-08-05T06:04:14.374Z,16.10
2022-08-05T06:06:48.954Z,16.30
2022-08-05T06:09:26.490Z,16.40
2022-08-05T06:12:04.476Z,16.60
2022-08-05T06:14:34.705Z,16.80
2022-08-05T06:17:22.227Z,17.00
2022-08-05T06:19:56.861Z,17.20
2022-08-05T06:22:29.814Z,17.40
2022-08-05T06:24:57.781Z,17.70
2022-08-05T06:28:12.584Z,17.80
2022-08-05T06:30:16.959Z,18.00
2022-08-05T06:32:55.618Z,18.20
2022-08-05T06:36:03.407Z,18.40
2022-08-05T06:38:17.546Z,18.60
2022-08-05T06:41:04.995Z,18.70
2022-08-05T06:43:59.785Z,18.90
2022-08-05T06:46:30.633Z,19.10
2022-08-05T06:49:00.974Z,19.30
2022-08-05T06:51:30.928Z,19.50
2022-08-05T06:54:00.480Z,19.60
2022-08-05T06:56:34.795Z,19.70
2022-08-05T06:59:09.720Z,19.90
2022-08-05T07:01:53.043Z,20.00
2022-08-05T07:04:32.535Z,20.10
2022-08-05T07:07:03.428Z,20.20
2022-08-05T07:09:45.728Z,20.30
2022-08-05T07:12:49.186Z,20.40
2022-08-05T07:16:01.082Z,20.50
2022-08-05T07:18:35.358Z,20.70
2022-08-05T07:21:09.265Z,20.90
2022-08-05T07:23:37.714Z,21.10
2022-08-05T07:26:22.768Z,21.40
2022-08-05T07:28:53.000Z,21.70
2022-08-05T07:31:40.910Z,21.90
2022-08-05T07:34:21.482Z,22.10
2022-08-05T07:36:59.859Z,22.20
2022-08-05T07:40:04.463Z,22.30
2022-08-05T07:42:33.638Z,22.40
2022-08-05T07:45:02.740Z,22.50
2022-08-05T07:47:42.149Z,22.70
2022-08-05T07:50:16.476Z,22.70
2022-08-05T07:52:47.841Z,22.80
2022-08-05T07:56:04.637Z,23.00
2022-08-05T07:58:04.239Z,23.20
2022-08-05T08:00:37.763Z,23.40
2022-08-05T08:03:19.331Z,23.60
2022-08-05T08:05:58.512Z,23.70
2022-08-05T08:08:26.974Z,23.80
2022-08-05T08:10:56.925Z,23.90
2022-08-05T08:13:28.971Z,24.10
2022-08-05T08:16:34.489Z,24.30
2022-08-05T08:18:51.138Z,24.40
2022-08-05T08:21:26.220Z,24.60
2022-08-05T08:24:02.215Z,24.70
2022-08-05T08:26:35.778Z,24.80
2022-08-05T08:30:03.295Z,24.80
2022-08-05T08:32:04.141Z,24.80
2022-08-05T08:34:35.127Z,24.80
2022-08-05T08:37:05.123Z,25.00
2022-08-05T08:39:37.393Z,25.10
2022-08-05T08:42:22.457Z,25.20
2022-08-05T08:45:23.521Z,25.30
2022-08-05T08:48:11.757Z,25.40
2022-08-05T08:51:04.068Z,25.50
2022-08-05T08:53:45.291Z,25.50
2022-08-05T08:56:13.404Z,25.60
2022-08-05T08:58:47.602Z,25.70
2022-08-05T09:01:20.596Z,25.80
2022-08-05T09:03:55.053Z,26.00
2022-08-05T09:06:29.874Z,26.10
2022-08-05T09:09:03.739Z,26.20
2022-08-05T09:11:52.669Z,26.40
2022-08-05T09:14:56.691Z,26.50
2022-08-05T09:17:40.890Z,26.50
2022-08-05T09:20:08.363Z,26.60
2022-08-05T09:23:09.167Z,26.70
2022-08-05T09:26:02.755Z,26.90
2022-08-05T09:28:39.205Z,27.00
2022-08-05T09:31:43.580Z,27.10
2022-08-05T09:34:26.279Z,27.10
2022-08-05T09:37:05.494Z,27.20
2022-08-05T09:39:52.096Z,27.20
2022-08-05T09:42:50.447Z,27.20
2022-08-05T09:46:07.915Z,27.30
2022-08-05T09:48:55.084Z,27.50
2022-08-05T09:51:42.581Z,27.60
2022-08-05T09:54:12.336Z,27.80
2022-08-05T09:56:52.315Z,28.10
2022-08-05T09:59:27.975Z,28.40
2022-08-05T10:02:01.806Z,28.50
2022-08-05T10:04:44.708Z,28.30
2022-08-05T10:07:20.310Z,28.20
2022-08-05T10:10:15.578Z,28.00
2022-08-05T10:13:04.053Z,28.00
2022-08-05T10:16:01.123Z,28.10
2022-08-05T10:18:32.376Z,28.20
2022-08-05T10:21:16.325Z,28.40
2022-08-05T10:23:59.672Z,28.60
2022-08-05T10:26:51.426Z,28.60
2022-08-05T10:30:41.540Z,28.30
2022-08-05T10:32:55.080Z,27.80
2022-08-05T10:35:18.357Z,27.60
2022-08-05T10:37:56.689Z,27.70
2022-08-05T10:40:43.640Z,28.10
2022-08-05T10:43:57.648Z,28.40
2022-08-05T10:47:26.676Z,28.70
2022-08-05T10:50:36.991Z,29.10
2022-08-05T10:53:05.245Z,29.40
2022-08-05T10:56:21.151Z,29.70
2022-08-05T10:59:12.274Z,29.80
2022-08-05T11:01:54.610Z,29.80
2022-08-05T11:04:58.212Z,29.60
2022-08-05T11:07:33.132Z,29.60
2022-08-05T11:10:31.007Z,29.80
2022-08-05T11:13:01.259Z,30.10
2022-08-05T11:16:01.048Z,30.40
2022-08-05T11:18:34.305Z,30.50
2022-08-05T11:21:06.494Z,30.70
2022-08-05T11:24:04.886Z,31.00
2022-08-05T11:26:43.428Z,31.30
2022-08-05T11:29:35.061Z,31.40
2022-08-05T11:32:25.721Z,31.10
2022-08-05T11:34:55.784Z,30.30
2022-08-05T11:38:29.891Z,29.50
2022-08-05T11:41:01.017Z,28.60
2022-08-05T11:44:06.291Z,28.20
2022-08-05T11:46:32.921Z,28.30
2022-08-05T11:49:02.057Z,28.90
2022-08-05T11:51:44.160Z,29.50
2022-08-05T11:54:34.961Z,30.00
2022-08-05T11:57:24.455Z,30.40
2022-08-05T11:59:55.104Z,30.90
2022-08-05T12:02:33.492Z,31.50
2022-08-05T12:05:07.868Z,31.70
2022-08-05T12:08:08.553Z,31.50
2022-08-05T12:10:45.505Z,31.30
2022-08-05T12:13:27.686Z,31.40
2022-08-05T12:16:14.567Z,31.50
2022-08-05T12:18:48.928Z,31.30
2022-08-05T12:21:30.694Z,30.90
2022-08-05T12:24:04.452Z,30.70
2022-08-05T12:26:47.631Z,30.70
2022-08-05T12:29:23.627Z,30.90
2022-08-05T12:31:54.400Z,30.80
2022-08-05T12:34:36.091Z,30.90
2022-08-05T12:37:16.970Z,31.10
2022-08-05T12:39:48.585Z,31.50
2022-08-05T12:42:21.262Z,31.90
2022-08-05T12:45:01.044Z,32.00
2022-08-05T12:47:31.154Z,31.60
2022-08-05T12:50:03.698Z,31.30
2022-08-05T12:52:39.158Z,31.20
2022-08-05T12:55:23.869Z,31.40
2022-08-05T12:58:50.632Z,31.80
2022-08-05T13:02:02.360Z,32.20
2022-08-05T13:03:49.191Z,32.70
2022-08-05T13:06:21.730Z,32.80
2022-08-05T13:08:51.777Z,32.50
2022-08-05T13:11:47.045Z,31.80
2022-08-05T13:14:25.095Z,31.10
2022-08-05T13:17:08.321Z,30.50
2022-08-05T13:19:52.662Z,30.30
2022-08-05T13:22:28.491Z,30.70
2022-08-05T13:25:05.780Z,31.30
2022-08-05T13:27:39.302Z,31.80
2022-08-05T13:30:35.593Z,31.80
2022-08-05T13:33:02.138Z,31.80
2022-08-05T13:35:43.085Z,32.10
2022-08-05T13:38:28.293Z,32.10
2022-08-05T13:41:01.777Z,31.60
2022-08-05T13:43:45.064Z,30.90
2022-08-05T13:46:37.940Z,30.80
2022-08-05T13:49:12.015Z,31.30
2022-08-05T13:51:46.393Z,31.80
2022-08-05T13:54:21.063Z,32.10
2022-08-05T13:56:52.693Z,32.50
2022-08-05T13:59:24.393Z,32.80
2022-08-05T14:01:59.203Z,33.30
2022-08-05T14:04:51.901Z,33.60
2022-08-05T14:08:00.249Z,33.90
2022-08-05T14:10:29.010Z,33.90
2022-08-05T14:12:59.670Z,34.10
2022-08-05T14:16:06.890Z,34.40
2022-08-05T14:18:23.994Z,34.60
2022-08-05T14:20:55.927Z,34.80
2022-08-05T14:23:25.639Z,34.80
2022-08-05T14:25:58.880Z,34.50
2022-08-05T14:28:29.786Z,34.10
2022-08-05T14:31:00.593Z,33.70
2022-08-05T14:33:56.706Z,33.40
2022-08-05T14:36:21.516Z,32.80
2022-08-05T14:38:51.118Z,32.20
2022-08-05T14:41:21.959Z,32.10
2022-08-05T14:44:00.052Z,32.30
2022-08-05T14:46:34.996Z,32.60
2022-08-05T14:49:08.553Z,33.00
2022-08-05T14:51:38.277Z,32.80
2022-08-05T14:54:28.458Z,32.10
2022-08-05T14:56:55.562Z,31.20
2022-08-05T14:59:24.231Z,30.30
2022-08-05T15:01:55.223Z,30.10
2022-08-05T15:04:24.428Z,30.40
2022-08-05T15:06:59.151Z,30.40
2022-08-05T15:09:52.463Z,30.10
2022-08-05T15:12:16.942Z,30.40
2022-08-05T15:14:49.909Z,30.10
2022-08-05T15:17:47.709Z,29.60
2022-08-05T15:20:17.216Z,28.90
2022-08-05T15:22:54.362Z,28.30
2022-08-05T15:25:51.389Z,28.20
2022-08-05T15:28:19.968Z,28.60
2022-08-05T15:30:53.165Z,29.20
2022-08-05T15:34:04.545Z,29.80
2022-08-05T15:36:17.224Z,30.30
2022-08-05T15:40:41.264Z,30.80
2022-08-05T15:41:56.108Z,31.20
2022-08-05T15:44:25.586Z,31.50
2022-08-05T15:46:55.773Z,31.70
2022-08-05T15:49:41.913Z,31.70
2022-08-05T15:52:16.596Z,31.70
2022-08-05T15:54:53.119Z,31.80
2022-08-05T15:57:26.068Z,31.90
2022-08-05T16:00:02.477Z,31.80
2022-08-05T16:02:34.120Z,31.80
2022-08-05T16:05:09.702Z,31.60
2022-08-05T16:07:38.974Z,31.50
2022-08-05T16:10:15.424Z,31.20
2022-08-05T16:12:45.068Z,30.80
2022-08-05T16:15:18.487Z,30.20
2022-08-05T16:17:57.918Z,29.90
2022-08-05T16:20:27.966Z,29.10
2022-08-05T16:22:55.832Z,28.60
2022-08-05T16:25:34.103Z,27.90
2022-08-05T16:28:09.786Z,27.40
2022-08-05T16:30:38.411Z,26.90
2022-08-05T16:33:06.731Z,26.40
2022-08-05T16:35:43.111Z,26.00
2022-08-05T16:38:24.452Z,25.70
2022-08-05T16:41:00.068Z,25.30
2022-08-05T16:43:31.865Z,24.90
2022-08-05T16:46:03.761Z,24.60
2022-08-05T16:48:38.520Z,24.40
2022-08-05T16:51:11.163Z,24.10
2022-08-05T16:54:05.025Z,23.90
2022-08-05T16:56:41.679Z,23.70
2022-08-05T16:59:14.662Z,23.60
2022-08-05T17:01:54.184Z,23.40
2022-08-05T17:04:26.308Z,23.30
2022-08-05T17:07:01.196Z,23.10
2022-08-05T17:09:30.453Z,23.10
2022-08-05T17:12:07.080Z,22.90
2022-08-05T17:14:38.051Z,22.90
2022-08-05T17:17:09.392Z,22.90
2022-08-05T17:19:46.426Z,22.80
2022-08-05T17:22:24.640Z,22.80
2022-08-05T17:25:00.124Z,22.70
2022-08-05T17:27:33.541Z,22.70
2022-08-05T17:30:12.272Z,22.70
2022-08-05T17:32:47.229Z,22.60
2022-08-05T17:35:15.807Z,22.60
2022-08-05T17:37:49.100Z,22.60
2022-08-05T17:40:22.440Z,22.60
2022-08-05T17:42:51.878Z,22.50
2022-08-05T17:45:29.721Z,22.50
2022-08-05T17:48:15.834Z,22.50
2022-08-05T17:50:57.703Z,22.20
2022-08-05T17:53:29.910Z,22.40
2022-08-05T17:56:18.084Z,22.20
2022-08-05T17:58:46.295Z,22.20
2022-08-05T18:01:23.221Z,22.20
2022-08-05T18:04:04.548Z,22.10
2022-08-05T18:06:46.682Z,22.00
2022-08-05T18:09:18.135Z,21.90
2022-08-05T18:11:49.710Z,21.80
2022-08-05T18:14:20.451Z,21.80
2022-08-05T18:16:51.886Z,21.70
2022-08-05T18:19:22.994Z,21.60
2022-08-05T18:22:09.010Z,21.60
2022-08-05T18:24:39.847Z,21.50
2022-08-05T18:27:18.532Z,21.50
2022-08-05T18:29:54.038Z,21.40
2022-08-05T18:32:27.762Z,21.40
2022-08-05T18:34:57.348Z,21.40
2022-08-05T18:37:34.151Z,21.40
2022-08-05T18:40:33.838Z,21.40
2022-08-05T18:42:59.892Z,21.40
2022-08-05T18:45:41.356Z,21.30
2022-08-05T18:48:11.942Z,21.30
2022-08-05T18:52:05.152Z,21.30
2022-08-05T18:53:54.072Z,21.30
2022-08-05T18:56:25.168Z,21.20
2022-08-05T18:58:54.908Z,21.20
2022-08-05T19:01:47.644Z,21.20
2022-08-05T19:04:24.001Z,21.10
2022-08-05T19:06:53.809Z,21.10
2022-08-05T19:09:22.571Z,21.10
2022-08-05T19:11:59.986Z,21.00
2022-08-05T19:14:37.693Z,21.00
2022-08-05T19:17:19.553Z,21.00
2022-08-05T19:19:52.594Z,20.90
2022-08-05T19:22:27.368Z,20.90
2022-08-05T19:25:00.791Z,20.90
2022-08-05T19:27:35.347Z,20.80
2022-08-05T19:30:08.514Z,20.70
2022-08-05T19:32:37.816Z,20.70
2022-08-05T19:35:07.058Z,20.50
2022-08-05T19:38:04.636Z,20.50
2022-08-05T19:40:30.586Z,20.50
2022-08-05T19:43:07.312Z,20.40
2022-08-05T19:45:36.997Z,20.40
2022-08-05T19:48:14.622Z,20.40
2022-08-05T19:50:45.283Z,20.40
2022-08-05T19:53:15.745Z,20.30
2022-08-05T19:56:15.202Z,20.30
2022-08-05T19:58:31.902Z,20.20
2022-08-05T20:01:28.096Z,20.20
2022-08-05T20:03:56.473Z,20.20
2022-08-05T20:06:28.773Z,20.10
2022-08-05T20:09:00.793Z,20.10
2022-08-05T20:11:34.008Z,20.10
2022-08-05T20:14:12.876Z,20.10
2022-08-05T20:16:42.031Z,20.00
2022-08-05T20:19:11.146Z,20.00
2022-08-05T20:21:41.076Z,20.10
2022-08-05T20:24:12.095Z,20.10
2022-08-05T20:26:48.761Z,20.10
2022-08-05T20:29:27.734Z,20.10
2022-08-05T20:31:59.587Z,20.10
2022-08-05T20:34:27.628Z,20.10
2022-08-05T20:36:58.835Z,20.10
2022-08-05T20:39:36.690Z,20.10
2022-08-05T20:42:08.295Z,20.00
2022-08-05T20:44:39.405Z,20.00
2022-08-05T20:47:10.005Z,19.90
2022-08-05T20:49:39.855Z,19.80
2022-08-05T20:52:08.831Z,19.80
2022-08-05T20:54:42.873Z,19.80
2022-08-05T20:57:43.465Z,19.70
2022-08-05T21:00:40.099Z,19.60
2022-08-05T21:03:07.356Z,19.50
2022-08-05T21:06:05.217Z,19.50
2022-08-05T21:08:53.021Z,19.40
2022-08-05T21:12:10.904Z,19.30
2022-08-05T21:14:08.381Z,19.20
2022-08-05T21:16:39.999Z,19.20
2022-08-05T21:19:09.609Z,19.10
2022-08-05T21:21:50.936Z,19.10
2022-08-05T21:24:19.980Z,19.00
2022-08-05T21:26:53.723Z,18.90
2022-08-05T21:29:31.905Z,18.80
2022-08-05T21:32:02.371Z,18.70
2022-08-05T21:34:31.588Z,18.70
2022-08-05T21:37:00.935Z,18.70
2022-08-05T21:39:29.517Z,18.60
2022-08-05T21:42:02.257Z,18.50
2022-08-05T21:44:31.640Z,18.50
2022-08-05T21:47:00.153Z,18.50
2022-08-05T21:49:48.509Z,18.50
2022-08-05T21:52:26.996Z,18.50
2022-08-05T21:54:57.648Z,18.40
2022-08-05T21:57:35.616Z,18.40
2022-08-05T22:00:17.564Z,18.40
2022-08-05T22:02:45.767Z,18.40
2022-08-05T22:05:15.856Z,18.40
2022-08-05T22:07:58.839Z,18.30
2022-08-05T22:10:33.894Z,18.30
2022-08-05T22:14:06.358Z,18.20
2022-08-05T22:16:00.595Z,18.20
2022-08-05T22:18:36.118Z,18.10
2022-08-05T22:21:19.372Z,18.10
2022-08-05T22:24:12.846Z,18.10
2022-08-05T22:26:59.965Z,18.10
2022-08-05T22:29:30.675Z,18.00
2022-08-05T22:32:03.246Z,18.00
2022-08-05T22:34:36.674Z,17.90
2022-08-05T22:37:04.683Z,17.90
2022-08-05T22:39:34.498Z,17.80
2022-08-05T22:42:12.476Z,17.80
2022-08-05T22:44:53.753Z,17.70
2022-08-05T22:47:28.916Z,17.70
2022-08-05T22:50:19.231Z,17.60
2022-08-05T22:52:50.201Z,17.60
2022-08-05T22:55:22.809Z,17.60
2022-08-05T22:57:52.592Z,17.50
2022-08-05T23:00:22.934Z,17.50
2022-08-05T23:02:53.578Z,17.50
2022-08-05T23:05:23.022Z,17.40
2022-08-05T23:07:52.897Z,17.40
2022-08-05T23:10:23.875Z,17.40
2022-08-05T23:12:54.538Z,17.30
2022-08-05T23:15:29.293Z,17.30
2022-08-05T23:18:03.548Z,17.30
2022-08-05T23:20:37.799Z,17.20
2022-08-05T23:23:08.729Z,17.20
2022-08-05T23:25:53.008Z,17.10
2022-08-05T23:28:28.743Z,17.10
2022-08-05T23:31:15.808Z,17.10
2022-08-05T23:34:03.763Z,17.10
2022-08-05T23:36:38.789Z,17.10
2022-08-05T23:39:09.246Z,17.10
2022-08-05T23:41:41.062Z,17.00
2022-08-05T23:44:16.774Z,17.00
2022-08-05T23:46:44.569Z,17.00
2022-08-05T23:49:16.920Z,17.00
2022-08-05T23:52:10.360Z,17.00
2022-08-05T23:54:38.992Z,17.00
2022-08-05T23:57:10.354Z,17.00
